Time;durP1;ratioP1;P1;durP2;ratioP2;P2;SDS_P1;SDS_P2;PMS_P1;PMS_P2;Temp;Humidity;BMP_temperature;BMP_pressure;BME280_temperature;BME280_humidity;BME280_pressure;Samples;Min_cycle;Max_cycle;Signal;HPM_P1;HPM_P2
2023/01/31 00:00:10;;;;;;;13.27;3.00;;;7.30;71.50;;;;;;5111582;28;20467;-63
2023/01/31 00:02:36;;;;;;;10.27;2.70;;;7.30;71.50;;;;;;5112602;28;20112;-64
2023/01/31 00:05:01;;;;;;;17.35;2.65;;;7.30;71.60;;;;;;5103287;28;20413;-64
2023/01/31 00:07:27;;;;;;;14.23;2.63;;;7.20;71.50;;;;;;5106947;28;20357;-64
2023/01/31 00:09:53;;;;;;;15.77;3.05;;;7.20;71.50;;;;;;5126017;27;20035;-64
2023/01/31 00:12:18;;;;;;;13.85;2.72;;;7.20;71.50;;;;;;5112217;28;20023;-64
2023/01/31 00:14:44;;;;;;;15.27;2.90;;;7.20;71.50;;;;;;5107076;28;20024;-64
2023/01/31 00:17:10;;;;;;;11.27;3.13;;;7.20;71.50;;;;;;5110982;28;20463;-64
2023/01/31 00:19:36;;;;;;;12.52;2.60;;;7.20;71.50;;;;;;5109416;27;20041;-64
2023/01/31 00:22:02;;;;;;;11.80;2.60;;;7.20;71.50;;;;;;5124259;27;20026;-64
2023/01/31 00:24:27;;;;;;;13.20;3.08;;;7.20;71.50;;;;;;5102821;28;20147;-63
2023/01/31 00:26:55;;;;;;;11.43;2.70;;;7.20;71.50;;;;;;5112633;28;20048;-64
2023/01/31 00:29:24;;;;;;;12.35;3.28;;;7.20;71.50;;;;;;5104251;28;20023;-64
2023/01/31 00:31:50;;;;;;;13.87;3.43;;;7.20;71.50;;;;;;5110110;28;20020;-64
2023/01/31 00:34:17;;;;;;;13.65;2.75;;;7.20;71.50;;;;;;5094651;28;20310;-64
2023/01/31 00:36:43;;;;;;;11.43;2.67;;;7.20;71.50;;;;;;5109169;28;20135;-64
2023/01/31 00:39:10;;;;;;;11.30;3.25;;;7.20;71.50;;;;;;5109242;28;20403;-65
2023/01/31 00:41:37;;;;;;;12.75;3.10;;;7.10;71.50;;;;;;5108248;28;20020;-64
2023/01/31 00:44:05;;;;;;;14.20;3.22;;;7.10;71.50;;;;;;5112766;28;20024;-64
2023/01/31 00:46:30;;;;;;;13.88;3.05;;;7.10;71.50;;;;;;5105814;28;20047;-64
2023/01/31 00:48:56;;;;;;;10.98;2.92;;;7.10;71.50;;;;;;5114976;28;20071;-64
2023/01/31 00:51:24;;;;;;;14.10;3.47;;;7.10;71.50;;;;;;5111574;28;20027;-64
2023/01/31 00:53:50;;;;;;;12.57;2.83;;;7.10;71.50;;;;;;5113351;28;20359;-64
2023/01/31 00:56:19;;;;;;;16.23;3.30;;;7.00;71.40;;;;;;5110347;28;20016;-64
2023/01/31 00:58:45;;;;;;;16.15;3.17;;;7.10;71.50;;;;;;5100281;28;20503;-64
2023/01/31 01:01:16;;;;;;;12.40;2.43;;;7.10;71.50;;;;;;5088534;28;20111;-64
2023/01/31 01:03:44;;;;;;;13.93;2.60;;;7.10;71.40;;;;;;5096000;28;20028;-64
2023/01/31 01:06:11;;;;;;;14.70;3.10;;;7.00;71.40;;;;;;5089814;28;20020;-64
2023/01/31 01:08:39;;;;;;;11.85;3.00;;;7.00;71.50;;;;;;5094010;28;20093;-64
2023/01/31 01:11:13;;;;;;;14.83;3.20;;;7.00;71.50;;;;;;5099914;28;20015;-63
2023/01/31 01:13:40;;;;;;;10.00;2.35;;;7.00;71.50;;;;;;5097842;28;20023;-64
2023/01/31 01:16:09;;;;;;;12.27;2.75;;;7.00;71.50;;;;;;5104943;28;20468;-64
2023/01/31 01:18:36;;;;;;;14.20;3.25;;;6.90;71.50;;;;;;5114763;28;20558;-64
2023/01/31 01:21:09;;;;;;;14.50;2.83;;;6.90;71.50;;;;;;5116704;28;20083;-64
2023/01/31 01:23:36;;;;;;;9.20;2.78;;;6.90;71.60;;;;;;5112215;28;20594;-65
2023/01/31 01:26:02;;;;;;;12.57;2.47;;;6.90;71.60;;;;;;5116677;28;20038;-64
2023/01/31 01:28:28;;;;;;;12.20;3.03;;;6.80;71.60;;;;;;5116529;28;20028;-64
2023/01/31 01:30:55;;;;;;;11.88;2.90;;;6.80;72.30;;;;;;5114355;28;20341;-64
2023/01/31 01:33:21;;;;;;;11.00;2.60;;;6.80;71.60;;;;;;5116632;28;20023;-64
2023/01/31 01:35:47;;;;;;;8.98;2.53;;;6.70;71.60;;;;;;5126666;27;20034;-63
2023/01/31 01:38:12;;;;;;;11.00;2.63;;;6.70;71.60;;;;;;5115128;28;20038;-64
2023/01/31 01:40:38;;;;;;;13.32;3.15;;;6.70;71.70;;;;;;5111614;28;20100;-64
2023/01/31 01:43:04;;;;;;;11.30;3.00;;;6.70;71.70;;;;;;5104501;28;20027;-65
2023/01/31 01:45:30;;;;;;;13.93;2.55;;;6.60;71.60;;;;;;5116172;28;20046;-64
2023/01/31 01:48:00;;;;;;;9.97;2.63;;;6.60;71.60;;;;;;5097675;28;20406;-65
2023/01/31 01:50:34;;;;;;;11.57;3.00;;;6.60;71.70;;;;;;5108494;28;20034;-64
2023/01/31 01:53:10;;;;;;;12.10;3.07;;;6.60;71.70;;;;;;5114761;28;20047;-64
2023/01/31 01:55:40;;;;;;;13.17;2.73;;;6.60;72.40;;;;;;5117071;28;20038;-64
2023/01/31 01:58:16;;;;;;;8.65;2.78;;;6.60;71.70;;;;;;5114424;28;20031;-64
2023/01/31 02:00:44;;;;;;;13.03;3.17;;;6.60;71.70;;;;;;5118182;27;20031;-64
2023/01/31 02:03:10;;;;;;;10.67;2.37;;;6.60;71.70;;;;;;5115406;28;20538;-64
2023/01/31 02:05:45;;;;;;;11.27;2.80;;;6.60;71.70;;;;;;5116764;28;20115;-64
2023/01/31 02:08:14;;;;;;;12.63;3.10;;;6.60;71.80;;;;;;5101655;28;20028;-64
2023/01/31 02:10:44;;;;;;;10.87;3.17;;;6.60;71.80;;;;;;5109883;28;20028;-64
2023/01/31 02:13:10;;;;;;;9.90;2.40;;;6.50;71.70;;;;;;5109392;28;20095;-64
2023/01/31 02:15:36;;;;;;;11.37;2.80;;;6.50;71.70;;;;;;5104610;28;20103;-64
2023/01/31 02:18:03;;;;;;;12.63;3.23;;;6.50;71.80;;;;;;5113102;28;20024;-64
2023/01/31 02:20:53;;;;;;;9.73;2.83;;;6.60;71.90;;;;;;5093895;28;20081;-64
2023/01/31 02:23:36;;;;;;;14.82;3.35;;;6.50;71.80;;;;;;5112317;28;20110;-64
2023/01/31 02:26:37;;;;;;;12.57;2.60;;;6.50;71.90;;;;;;5115203;28;20085;-64
2023/01/31 02:29:18;;;;;;;10.23;2.47;;;6.50;71.90;;;;;;5095561;28;20044;-64
2023/01/31 02:31:52;;;;;;;12.23;2.63;;;6.50;72.00;;;;;;5112526;28;20024;-64
2023/01/31 02:34:43;;;;;;;12.67;2.40;;;6.50;72.00;;;;;;5095796;28;20074;-64
2023/01/31 02:37:25;;;;;;;12.75;2.67;;;6.50;72.00;;;;;;5115158;28;20063;-64
2023/01/31 02:39:51;;;;;;;;;;;6.60;72.00;;;;;;5097246;28;20102;-64
2023/01/31 02:42:37;;;;;;;11.47;3.03;;;6.60;72.00;;;;;;5114189;28;19954;-64
2023/01/31 02:45:24;;;;;;;15.20;3.10;;;6.60;72.00;;;;;;5105188;28;20020;-64
2023/01/31 02:48:20;;;;;;;7.67;2.20;;;6.60;71.90;;;;;;5104385;28;20368;-64
2023/01/31 02:51:03;;;;;;;11.93;2.50;;;6.70;72.00;;;;;;5106509;28;20039;-64
2023/01/31 02:53:36;;;;;;;12.77;3.30;;;6.70;72.00;;;;;;5115190;28;20046;-64
2023/01/31 02:56:18;;;;;;;13.50;3.00;;;6.70;72.00;;;;;;5112404;28;20431;-64
2023/01/31 02:59:09;;;;;;;10.10;2.50;;;6.70;72.10;;;;;;5113632;28;20102;-64
2023/01/31 03:01:40;;;;;;;11.37;3.37;;;6.70;72.10;;;;;;5111564;28;20062;-64
2023/01/31 03:04:09;;;;;;;9.97;2.30;;;6.70;72.10;;;;;;5097672;28;20265;-64
2023/01/31 03:06:35;;;;;;;8.63;2.30;;;6.70;72.20;;;;;;5122637;27;20015;-64
2023/01/31 03:09:09;;;;;;;12.00;2.78;;;6.80;72.30;;;;;;5113075;28;20023;-64
2023/01/31 03:12:17;;;;;;;9.13;2.50;;;6.80;72.30;;;;;;5095054;28;20049;-64
2023/01/31 03:14:49;;;;;;;8.10;2.67;;;6.80;72.30;;;;;;5085895;27;20411;-64
2023/01/31 03:17:46;;;;;;;9.67;2.23;;;6.80;72.30;;;;;;5113267;28;20055;-64
2023/01/31 03:20:18;;;;;;;14.10;3.05;;;6.80;72.30;;;;;;5107367;28;20437;-63
2023/01/31 03:22:49;;;;;;;9.37;3.00;;;6.80;72.40;;;;;;5094955;28;20024;-64
2023/01/31 03:25:20;;;;;;;14.25;3.33;;;6.80;72.40;;;;;;5114226;28;20016;-64
2023/01/31 03:27:55;;;;;;;11.43;3.13;;;6.80;72.40;;;;;;5130054;27;20464;-64
2023/01/31 03:30:39;;;;;;;11.02;2.92;;;6.80;72.40;;;;;;5113081;28;20015;-64
2023/01/31 03:33:12;;;;;;;13.57;3.63;;;6.80;72.40;;;;;;5125224;27;20040;-64
2023/01/31 03:35:41;;;;;;;9.45;3.10;;;6.90;72.50;;;;;;5084852;28;20024;-63
2023/01/31 03:38:14;;;;;;;11.13;3.33;;;6.90;72.50;;;;;;5116390;27;20106;-64
2023/01/31 03:40:52;;;;;;;14.52;3.15;;;6.90;72.50;;;;;;5112797;28;20119;-64
2023/01/31 03:43:23;;;;;;;13.47;2.73;;;6.90;72.70;;;;;;5111621;28;20050;-64
2023/01/31 03:46:17;;;;;;;13.87;3.80;;;6.90;72.70;;;;;;5107123;28;20077;-64
2023/01/31 03:48:48;;;;;;;9.18;2.88;;;6.90;72.80;;;;;;5113545;28;20439;-64
2023/01/31 03:51:20;;;;;;;10.27;3.33;;;6.90;72.80;;;;;;5109948;28;20023;-64
2023/01/31 03:53:52;;;;;;;13.80;3.70;;;7.00;72.90;;;;;;5113423;28;20031;-64
2023/01/31 03:56:39;;;;;;;15.57;4.07;;;7.00;73.00;;;;;;5102001;28;20031;-64
2023/01/31 03:59:19;;;;;;;11.30;3.95;;;7.00;73.00;;;;;;5105429;28;20081;-64
2023/01/31 04:01:48;;;;;;;13.85;3.95;;;7.00;73.10;;;;;;5110072;28;20028;-64
2023/01/31 04:04:20;;;;;;;14.77;4.43;;;7.00;73.10;;;;;;5118268;27;20433;-64
2023/01/31 04:06:46;;;;;;;13.60;4.07;;;7.00;73.20;;;;;;5104400;28;20368;-64
2023/01/31 04:09:13;;;;;;;15.10;4.33;;;7.10;73.20;;;;;;5113156;28;20034;-64
2023/01/31 04:11:40;;;;;;;13.13;4.27;;;7.10;73.30;;;;;;5113307;28;20427;-63
2023/01/31 04:14:07;;;;;;;15.65;5.03;;;7.10;73.40;;;;;;5113635;28;20062;-64
2023/01/31 04:16:33;;;;;;;17.10;4.50;;;7.10;73.40;;;;;;5099091;28;20092;-64
2023/01/31 04:18:59;;;;;;;11.33;4.40;;;7.20;73.60;;;;;;5124194;27;20042;-64
2023/01/31 04:21:25;;;;;;;12.75;4.70;;;7.20;73.60;;;;;;5112427;28;20039;-64
2023/01/31 04:23:50;;;;;;;16.50;4.73;;;7.20;73.70;;;;;;5112869;28;20043;-64
2023/01/31 04:26:16;;;;;;;16.42;5.63;;;7.10;73.70;;;;;;5113037;28;20031;-64
2023/01/31 04:28:42;;;;;;;13.73;4.50;;;7.20;73.80;;;;;;5105603;28;20122;-64
2023/01/31 04:31:08;;;;;;;17.45;4.72;;;7.20;73.90;;;;;;5106483;28;20027;-64
2023/01/31 04:33:34;;;;;;;16.13;5.20;;;7.10;73.90;;;;;;5112663;28;20034;-64
2023/01/31 04:36:00;;;;;;;13.75;5.55;;;7.20;74.00;;;;;;5113299;28;20020;-64
2023/01/31 04:38:25;;;;;;;17.08;5.45;;;7.10;74.00;;;;;;5112470;28;20367;-64
2023/01/31 04:40:51;;;;;;;16.15;5.75;;;7.20;74.10;;;;;;5110649;28;20444;-64
2023/01/31 04:43:17;;;;;;;11.30;5.00;;;7.20;74.20;;;;;;5111662;28;20051;-64
2023/01/31 04:45:43;;;;;;;13.48;5.65;;;7.20;74.20;;;;;;5118563;28;20035;-64
2023/01/31 04:48:09;;;;;;;16.77;5.80;;;7.20;74.30;;;;;;5112327;28;20394;-63
2023/01/31 04:50:35;;;;;;;17.25;5.75;;;7.20;74.50;;;;;;5115920;27;20035;-64
2023/01/31 04:53:00;;;;;;;15.73;6.60;;;7.20;74.40;;;;;;5114259;28;20019;-64
2023/01/31 04:55:26;;;;;;;19.52;6.25;;;7.20;74.40;;;;;;5099936;28;20027;-64
2023/01/31 04:57:52;;;;;;;17.08;5.82;;;7.20;74.40;;;;;;5115814;28;20035;-64
2023/01/31 05:00:18;;;;;;;17.63;5.25;;;7.20;74.50;;;;;;5117019;28;20051;-64
2023/01/31 05:02:44;;;;;;;14.70;5.83;;;7.20;74.60;;;;;;5111074;28;20361;-64
2023/01/31 05:05:11;;;;;;;17.58;6.25;;;7.20;74.60;;;;;;5109850;28;20035;-64
2023/01/31 05:07:38;;;;;;;13.85;5.72;;;7.20;74.60;;;;;;5111611;28;20036;-64
2023/01/31 05:10:05;;;;;;;15.77;6.18;;;7.20;74.70;;;;;;5116568;28;20023;-64
2023/01/31 05:12:31;;;;;;;16.30;6.20;;;7.20;74.80;;;;;;5114258;28;20030;-64
2023/01/31 05:14:57;;;;;;;17.40;5.88;;;7.20;74.80;;;;;;5111509;28;20032;-64
2023/01/31 05:17:25;;;;;;;16.80;6.38;;;7.20;74.80;;;;;;5107286;28;20019;-64
2023/01/31 05:19:51;;;;;;;16.77;5.53;;;7.20;74.90;;;;;;5113564;28;20023;-64
2023/01/31 05:22:21;;;;;;;16.85;6.40;;;7.20;74.90;;;;;;5115699;28;20031;-64
2023/01/31 05:24:48;;;;;;;18.27;6.43;;;7.20;74.90;;;;;;5094591;28;20122;-64
2023/01/31 05:27:14;;;;;;;17.35;6.47;;;7.20;75.00;;;;;;5116637;28;20401;-64
2023/01/31 05:29:40;;;;;;;20.70;7.05;;;7.20;75.00;;;;;;5113281;28;20119;-64
2023/01/31 05:32:06;;;;;;;16.73;6.18;;;7.20;75.00;;;;;;5115203;28;20368;-64
2023/01/31 05:34:32;;;;;;;17.13;5.95;;;7.30;75.10;;;;;;5094555;28;20016;-63
2023/01/31 05:36:58;;;;;;;18.50;6.35;;;7.30;75.10;;;;;;5114159;28;20030;-63
2023/01/31 05:39:24;;;;;;;17.98;6.60;;;7.30;75.20;;;;;;5111145;28;20034;-64
2023/01/31 05:41:51;;;;;;;17.45;6.00;;;7.30;75.20;;;;;;5114926;28;20023;-64
2023/01/31 05:44:17;;;;;;;14.52;5.63;;;7.30;75.20;;;;;;5112683;28;20085;-63
2023/01/31 05:46:43;;;;;;;19.60;6.90;;;7.30;75.30;;;;;;5113437;28;20038;-64
2023/01/31 05:49:09;;;;;;;20.10;6.70;;;7.20;75.30;;;;;;5112048;28;20082;-64
2023/01/31 05:51:35;;;;;;;16.27;6.10;;;7.30;75.40;;;;;;5116045;28;20458;-64
2023/01/31 05:54:01;;;;;;;19.88;6.50;;;7.30;75.50;;;;;;5115749;28;20024;-64
2023/01/31 05:56:27;;;;;;;20.45;6.45;;;7.20;75.50;;;;;;5114668;28;20026;-64
2023/01/31 05:58:53;;;;;;;16.08;6.40;;;7.30;75.60;;;;;;5113316;28;20032;-64
2023/01/31 06:01:20;;;;;;;18.52;6.07;;;7.30;75.70;;;;;;5101558;28;20024;-64
2023/01/31 06:03:46;;;;;;;22.27;7.55;;;7.30;75.70;;;;;;5116334;28;20028;-64
2023/01/31 06:06:12;;;;;;;16.60;6.77;;;7.30;76.40;;;;;;5099336;28;20050;-64
2023/01/31 06:08:38;;;;;;;13.73;6.15;;;7.30;75.70;;;;;;5111936;28;20447;-63
2023/01/31 06:11:04;;;;;;;23.23;7.07;;;7.30;76.40;;;;;;5106519;28;20440;-63
2023/01/31 06:13:31;;;;;;;22.33;6.45;;;7.30;75.90;;;;;;5112799;28;20031;-64
2023/01/31 06:15:57;;;;;;;18.77;6.35;;;7.30;75.90;;;;;;5110034;28;20050;-64
2023/01/31 06:18:23;;;;;;;18.08;6.60;;;7.30;75.90;;;;;;5111294;27;20016;-64
2023/01/31 06:20:48;;;;;;;16.88;6.60;;;7.30;76.00;;;;;;5109857;27;20491;-64
2023/01/31 06:23:14;;;;;;;17.37;6.20;;;7.30;76.00;;;;;;5116086;27;20664;-64
2023/01/31 06:25:40;;;;;;;19.67;6.10;;;7.30;76.10;;;;;;5111811;27;20024;-64
2023/01/31 06:28:05;;;;;;;17.27;6.55;;;7.40;76.10;;;;;;5110934;27;20020;-64
2023/01/31 06:30:31;;;;;;;14.82;6.00;;;7.40;76.10;;;;;;5111181;27;20486;-64
2023/01/31 06:33:01;;;;;;;14.93;6.25;;;7.40;76.10;;;;;;5099629;28;20047;-63
2023/01/31 06:35:27;;;;;;;16.75;6.25;;;7.40;76.10;;;;;;5111205;27;20034;-63
2023/01/31 06:37:54;;;;;;;17.75;5.97;;;7.40;76.00;;;;;;5108413;27;20095;-65
2023/01/31 06:40:20;;;;;;;17.80;7.07;;;7.50;76.10;;;;;;5109269;27;20039;-65
2023/01/31 06:42:45;;;;;;;17.50;6.13;;;7.40;76.10;;;;;;5106415;28;20471;-65
2023/01/31 06:45:11;;;;;;;20.40;6.13;;;7.40;76.20;;;;;;5108431;27;20027;-65
2023/01/31 06:47:37;;;;;;;19.77;6.63;;;7.40;76.20;;;;;;5106895;28;20084;-65
2023/01/31 06:50:03;;;;;;;15.60;6.30;;;7.40;76.20;;;;;;5108443;27;20073;-65
2023/01/31 06:52:29;;;;;;;21.30;6.35;;;7.40;76.20;;;;;;5106095;27;20060;-65
2023/01/31 06:54:55;;;;;;;15.80;6.32;;;7.40;76.20;;;;;;5112200;27;20016;-65
2023/01/31 06:57:21;;;;;;;18.25;6.60;;;7.50;76.30;;;;;;5092575;28;20012;-65
2023/01/31 06:59:46;;;;;;;16.15;5.55;;;7.50;76.30;;;;;;5113166;27;20031;-65
2023/01/31 07:02:12;;;;;;;16.80;6.88;;;7.50;76.30;;;;;;5105236;27;20243;-66
2023/01/31 07:04:38;;;;;;;18.23;7.03;;;7.50;76.30;;;;;;5111598;27;20114;-66
2023/01/31 07:07:03;;;;;;;17.98;6.30;;;7.50;76.40;;;;;;5104747;28;20453;-66
2023/01/31 07:09:29;;;;;;;17.17;7.13;;;7.50;76.40;;;;;;5103811;28;20031;-66
2023/01/31 07:11:55;;;;;;;16.15;7.03;;;7.50;76.30;;;;;;5101542;28;20028;-65
2023/01/31 07:14:21;;;;;;;23.38;7.57;;;7.50;76.30;;;;;;5102704;28;20433;-65
2023/01/31 07:16:46;;;;;;;18.35;6.72;;;7.50;76.30;;;;;;5115538;27;20059;-66
2023/01/31 07:19:12;;;;;;;17.15;6.55;;;7.50;76.30;;;;;;5108576;27;20035;-67
2023/01/31 07:21:38;;;;;;;16.98;7.00;;;7.50;76.40;;;;;;5094015;28;21206;-67
2023/01/31 07:24:04;;;;;;;20.45;6.93;;;7.50;76.40;;;;;;5103539;27;20019;-67
2023/01/31 07:26:30;;;;;;;15.93;6.30;;;7.50;76.40;;;;;;5102647;27;20063;-67
2023/01/31 07:28:55;;;;;;;22.80;6.75;;;7.50;76.40;;;;;;5111300;27;20067;-67
2023/01/31 07:31:21;;;;;;;19.58;7.40;;;7.50;76.40;;;;;;5106457;28;20463;-67
2023/01/31 07:33:47;;;;;;;19.73;7.30;;;7.60;76.40;;;;;;5109278;27;20401;-67
2023/01/31 07:36:14;;;;;;;19.73;7.00;;;7.50;76.40;;;;;;5103174;27;20023;-66
2023/01/31 07:38:41;;;;;;;18.60;6.47;;;7.60;76.40;;;;;;5098708;28;20026;-65
2023/01/31 07:41:09;;;;;;;18.17;6.85;;;7.60;76.30;;;;;;5110347;27;20035;-65
2023/01/31 07:43:35;;;;;;;13.98;6.60;;;7.60;76.30;;;;;;5098002;27;20058;-65
2023/01/31 07:46:01;;;;;;;13.50;6.60;;;7.60;76.30;;;;;;5106201;28;20047;-64
2023/01/31 07:48:26;;;;;;;14.82;5.97;;;7.60;76.30;;;;;;5092271;27;20375;-64
2023/01/31 07:50:58;;;;;;;13.00;6.82;;;7.60;76.20;;;;;;5112502;27;20109;-64
2023/01/31 07:53:25;;;;;;;;;;;7.60;76.30;;;;;;5112981;27;20024;-64
2023/01/31 07:55:52;;;;;;;16.08;6.35;;;7.60;76.30;;;;;;5117735;27;20243;-64
2023/01/31 07:58:18;;;;;;;18.27;6.18;;;7.60;76.20;;;;;;5111738;27;20028;-64
2023/01/31 08:03:32;;;;;;;18.17;5.90;;;7.60;76.10;;;;;;5116997;27;20039;-65
2023/01/31 08:06:12;;;;;;;17.02;6.03;;;7.60;76.10;;;;;;5117937;27;20031;-64
2023/01/31 08:08:40;;;;;;;15.93;6.50;;;7.60;76.10;;;;;;5095883;27;20116;-64
2023/01/31 08:11:06;;;;;;;13.05;5.72;;;7.60;76.00;;;;;;5096347;27;20020;-64
2023/01/31 08:13:34;;;;;;;14.35;6.22;;;7.70;76.10;;;;;;5109500;28;20019;-66
2023/01/31 08:16:01;;;;;;;15.07;5.85;;;7.60;76.00;;;;;;5108223;28;20039;-64
2023/01/31 08:18:27;;;;;;;13.52;5.22;;;7.60;76.00;;;;;;5110453;28;20038;-65
2023/01/31 08:20:53;;;;;;;12.00;5.38;;;7.60;76.00;;;;;;5112317;28;20028;-65
2023/01/31 08:23:19;;;;;;;18.02;5.60;;;7.60;76.00;;;;;;5109310;27;20027;-65
2023/01/31 08:25:44;;;;;;;13.68;6.05;;;7.70;76.00;;;;;;5102966;28;20143;-65
2023/01/31 08:28:10;;;;;;;16.83;6.53;;;7.70;76.00;;;;;;5102042;27;20032;-65
2023/01/31 08:30:41;;;;;;;15.32;5.68;;;7.60;75.90;;;;;;5096911;28;20020;-65
2023/01/31 08:33:08;;;;;;;16.65;5.38;;;7.70;75.90;;;;;;5100080;27;20028;-64
2023/01/31 08:35:34;;;;;;;18.90;6.07;;;7.70;75.90;;;;;;5102983;28;20087;-64
2023/01/31 08:38:00;;;;;;;11.27;5.50;;;7.70;75.80;;;;;;5109661;28;20028;-66
2023/01/31 08:40:26;;;;;;;13.47;5.37;;;7.70;75.80;;;;;;5102476;28;20336;-66
2023/01/31 08:42:56;;;;;;;14.43;5.70;;;7.70;75.80;;;;;;5101802;28;20027;-65
2023/01/31 08:45:22;;;;;;;17.27;5.45;;;7.70;75.80;;;;;;5112117;28;20076;-66
2023/01/31 08:47:52;;;;;;;13.32;5.18;;;7.70;75.70;;;;;;5113483;28;20031;-66
2023/01/31 08:50:17;;;;;;;15.38;4.97;;;7.70;75.70;;;;;;5108588;28;20122;-65
2023/01/31 08:52:43;;;;;;;12.68;5.20;;;7.80;75.70;;;;;;5081537;28;20118;-66
2023/01/31 08:55:12;;;;;;;15.02;5.05;;;7.80;75.60;;;;;;5077440;28;20032;-66
2023/01/31 08:57:39;;;;;;;15.80;4.82;;;7.80;75.60;;;;;;5113379;28;20095;-66
2023/01/31 09:00:06;;;;;;;14.02;6.38;;;7.80;75.60;;;;;;5114853;28;20067;-67
2023/01/31 09:02:33;;;;;;;18.20;6.30;;;7.80;75.50;;;;;;5112484;27;20035;-66
2023/01/31 09:04:59;;;;;;;13.90;5.32;;;7.80;75.50;;;;;;5113464;28;20448;-66
2023/01/31 09:07:25;;;;;;;14.50;5.30;;;7.90;75.50;;;;;;5113862;28;20080;-65
2023/01/31 09:09:51;;;;;;;14.13;5.07;;;7.90;76.20;;;;;;5113448;28;20032;-66
2023/01/31 09:12:18;;;;;;;15.85;5.40;;;7.90;75.50;;;;;;5114313;28;20027;-65
2023/01/31 09:14:43;;;;;;;13.38;5.35;;;7.90;75.50;;;;;;5108624;28;20486;-66
2023/01/31 09:17:09;;;;;;;13.85;5.25;;;7.90;75.50;;;;;;5103307;28;20057;-66
2023/01/31 09:19:36;;;;;;;13.95;5.53;;;7.90;75.50;;;;;;5113901;28;20093;-66
2023/01/31 09:22:03;;;;;;;16.27;5.68;;;7.90;75.60;;;;;;5114483;28;20453;-66
2023/01/31 09:24:29;;;;;;;17.80;5.18;;;7.90;75.60;;;;;;5112798;28;20360;-66
2023/01/31 09:26:55;;;;;;;17.58;6.05;;;7.90;75.60;;;;;;5113720;28;20071;-66
2023/01/31 09:29:21;;;;;;;14.70;5.40;;;7.90;75.60;;;;;;5113582;28;20031;-66
2023/01/31 09:31:50;;;;;;;16.02;5.35;;;7.90;75.50;;;;;;5117882;28;20023;-66
2023/01/31 09:34:16;;;;;;;13.95;5.30;;;7.90;75.50;;;;;;5116921;28;20020;-66
2023/01/31 09:36:42;;;;;;;13.85;5.57;;;7.90;75.50;;;;;;5117833;28;20110;-66
2023/01/31 09:39:11;;;;;;;14.15;5.20;;;7.90;75.50;;;;;;5113049;28;20034;-66
2023/01/31 09:42:00;;;;;;;12.10;5.65;;;7.90;75.60;;;;;;5113919;28;20131;-66
2023/01/31 09:44:29;;;;;;;16.25;5.07;;;7.90;75.60;;;;;;5112349;28;20126;-65
2023/01/31 09:47:18;;;;;;;15.27;5.22;;;7.90;75.60;;;;;;5107989;28;20386;-66
2023/01/31 09:49:51;;;;;;;14.68;4.90;;;8.00;75.60;;;;;;5113004;27;20050;-66
2023/01/31 09:52:17;;;;;;;10.45;4.68;;;8.00;75.60;;;;;;5113033;28;20028;-66
2023/01/31 09:54:44;;;;;;;12.88;4.70;;;7.90;75.50;;;;;;5103208;27;20032;-65
2023/01/31 09:57:26;;;;;;;12.65;5.45;;;8.00;75.60;;;;;;5110446;27;20015;-65
2023/01/31 10:00:06;;;;;;;;;;;8.00;75.50;;;;;;5104549;27;20141;-65
2023/01/31 10:02:50;;;;;;;10.10;4.43;;;8.00;75.50;;;;;;5107347;27;19994;-66
2023/01/31 10:05:35;;;;;;;16.15;4.93;;;8.00;75.40;;;;;;5104759;27;20035;-64
2023/01/31 10:08:00;;;;;;;14.90;4.70;;;8.10;75.40;;;;;;5101613;27;20024;-64
2023/01/31 10:10:43;;;;;;;12.27;4.85;;;8.10;75.40;;;;;;5110640;27;20024;-66
2023/01/31 10:13:16;;;;;;;14.43;5.22;;;8.10;75.40;;;;;;5096444;28;20035;-65
2023/01/31 10:15:50;;;;;;;17.48;5.35;;;8.10;76.10;;;;;;5106430;27;20027;-64
2023/01/31 10:18:20;;;;;;;10.93;5.18;;;8.10;75.40;;;;;;5115280;28;20035;-65
2023/01/31 10:21:12;;;;;;;12.15;4.70;;;8.10;75.40;;;;;;5107869;28;20043;-65
2023/01/31 10:23:40;;;;;;;11.80;4.70;;;8.20;75.50;;;;;;5101959;28;20027;-65
2023/01/31 10:26:14;;;;;;;15.98;5.15;;;8.20;75.50;;;;;;5098032;28;20028;-65
2023/01/31 10:28:43;;;;;;;11.57;4.35;;;8.20;75.50;;;;;;5096196;28;20430;-65
2023/01/31 10:31:14;;;;;;;19.95;5.40;;;8.20;75.50;;;;;;5115780;28;20024;-65
2023/01/31 10:33:46;;;;;;;13.38;5.10;;;8.30;75.50;;;;;;5102903;28;20088;-64
2023/01/31 10:36:25;;;;;;;15.57;5.00;;;8.30;75.50;;;;;;5108289;28;20038;-66
2023/01/31 10:39:18;;;;;;;14.20;5.30;;;8.40;75.50;;;;;;5111180;28;20336;-65
2023/01/31 10:42:10;;;;;;;11.18;4.88;;;8.40;75.50;;;;;;5101098;28;20444;-65
2023/01/31 10:44:54;;;;;;;12.10;4.20;;;8.40;75.40;;;;;;5095702;28;20051;-65
2023/01/31 10:47:26;;;;;;;17.48;3.97;;;8.40;75.40;;;;;;5116221;28;20047;-65
2023/01/31 10:49:52;;;;;;;11.88;4.78;;;8.40;75.50;;;;;;5112863;28;20132;-65
2023/01/31 10:52:44;;;;;;;10.57;4.68;;;8.50;75.60;;;;;;5116481;28;20151;-65
2023/01/31 10:55:32;;;;;;;16.05;4.07;;;8.50;75.70;;;;;;5108842;28;20020;-65
2023/01/31 10:57:58;;;;;;;14.65;4.63;;;8.50;75.70;;;;;;5103455;28;20073;-66
2023/01/31 11:00:30;;;;;;;16.35;4.55;;;8.60;75.60;;;;;;5113373;28;20038;-66
2023/01/31 11:02:58;;;;;;;14.73;5.22;;;8.60;75.70;;;;;;5097646;28;20085;-65
2023/01/31 11:05:27;;;;;;;13.32;4.78;;;8.60;75.70;;;;;;5103170;28;20027;-65
2023/01/31 11:07:58;;;;;;;12.82;5.07;;;8.60;75.80;;;;;;5118500;27;20024;-65
2023/01/31 11:10:30;;;;;;;14.60;4.15;;;8.60;75.90;;;;;;5114631;28;20055;-65
2023/01/31 11:13:00;;;;;;;;;;;8.60;75.90;;;;;;5103245;28;20043;-65
2023/01/31 11:15:29;;;;;;;12.07;4.88;;;8.70;75.90;;;;;;5113216;28;19907;-65
2023/01/31 11:17:59;;;;;;;16.67;4.88;;;8.60;75.80;;;;;;5101504;27;20024;-65
2023/01/31 11:20:32;;;;;;;14.80;4.73;;;8.70;75.90;;;;;;5094364;28;20039;-65
2023/01/31 11:23:00;;;;;;;15.60;5.32;;;8.70;75.90;;;;;;5097299;28;20063;-65
2023/01/31 11:25:28;;;;;;;14.60;4.80;;;8.70;75.90;;;;;;5107604;28;20020;-65
2023/01/31 11:27:59;;;;;;;14.80;5.13;;;8.80;76.10;;;;;;5106479;27;20020;-65
2023/01/31 11:30:37;;;;;;;11.30;4.75;;;8.80;76.10;;;;;;5099632;28;20023;-65
2023/01/31 11:33:03;;;;;;;15.88;6.57;;;8.80;76.10;;;;;;5103033;28;20020;-65
2023/01/31 11:35:31;;;;;;;12.63;4.70;;;8.80;76.10;;;;;;5106117;28;20100;-65
2023/01/31 11:38:00;;;;;;;10.48;4.75;;;8.80;76.20;;;;;;5107291;28;20024;-65
2023/01/31 11:40:29;;;;;;;12.30;5.53;;;8.80;76.40;;;;;;5112210;28;20112;-65
2023/01/31 11:43:00;;;;;;;14.55;5.38;;;8.80;76.40;;;;;;5104315;28;20097;-65
2023/01/31 11:45:30;;;;;;;13.77;4.82;;;8.90;76.60;;;;;;5111971;28;20031;-65
2023/01/31 11:48:13;;;;;;;10.15;4.60;;;8.80;76.50;;;;;;5114672;28;20460;-65
2023/01/31 11:50:43;;;;;;;12.70;5.97;;;8.90;76.60;;;;;;5113482;28;20028;-65
2023/01/31 11:53:23;;;;;;;13.02;5.38;;;8.90;76.60;;;;;;5101913;28;20016;-65
2023/01/31 11:55:53;;;;;;;13.00;4.80;;;8.90;76.80;;;;;;5109096;28;20042;-64
2023/01/31 11:58:32;;;;;;;13.02;5.07;;;8.80;76.80;;;;;;5107508;28;20019;-64
2023/01/31 12:01:05;;;;;;;10.35;4.00;;;8.90;77.00;;;;;;5112605;28;20031;-65
2023/01/31 12:03:31;;;;;;;14.48;4.88;;;8.90;77.00;;;;;;5107423;28;20329;-65
2023/01/31 12:06:06;;;;;;;15.32;5.10;;;8.90;77.10;;;;;;5100200;28;20039;-64
2023/01/31 12:08:38;;;;;;;14.25;5.20;;;9.00;77.30;;;;;;5105822;28;20023;-64
2023/01/31 12:11:30;;;;;;;12.52;4.65;;;9.00;77.40;;;;;;5122795;27;20020;-64
2023/01/31 12:14:23;;;;;;;11.98;4.50;;;8.90;77.50;;;;;;5108770;27;20030;-65
2023/01/31 12:16:54;;;;;;;13.93;4.80;;;8.90;77.60;;;;;;5099361;28;20471;-65
2023/01/31 12:19:47;;;;;;;14.82;4.60;;;8.90;77.80;;;;;;5107856;28;20055;-65
2023/01/31 12:22:51;;;;;;;10.25;4.20;;;8.90;78.00;;;;;;5108960;27;20079;-65
2023/01/31 12:25:21;;;;;;;16.77;5.05;;;9.00;78.20;;;;;;5088472;28;20452;-65
2023/01/31 12:28:08;;;;;;;13.02;4.72;;;8.90;78.30;;;;;;5107783;27;20591;-65
2023/01/31 12:31:07;;;;;;;10.55;4.25;;;8.90;78.60;;;;;;5121097;27;20038;-65
2023/01/31 12:33:33;;;;;;;11.00;3.95;;;8.90;78.80;;;;;;5086186;28;20046;-65
2023/01/31 12:36:05;;;;;;;10.80;3.92;;;8.90;78.80;;;;;;5109775;28;20437;-65
2023/01/31 12:38:56;;;;;;;10.93;3.97;;;8.90;79.20;;;;;;5098560;28;20038;-65
2023/01/31 12:41:40;;;;;;;14.95;4.07;;;8.90;79.30;;;;;;5111659;28;20035;-65
2023/01/31 12:44:19;;;;;;;10.55;4.20;;;8.90;79.40;;;;;;5103143;28;20411;-65
2023/01/31 12:46:51;;;;;;;11.68;4.05;;;8.90;79.40;;;;;;5123881;28;20028;-65
2023/01/31 12:49:57;;;;;;;9.52;3.63;;;8.90;79.60;;;;;;5106052;28;20054;-65
2023/01/31 12:52:32;;;;;;;10.85;3.28;;;9.00;79.80;;;;;;5107141;28;20019;-66
2023/01/31 12:55:46;;;;;;;10.73;4.03;;;9.00;79.90;;;;;;5113020;28;20031;-65
2023/01/31 12:58:46;;;;;;;10.50;3.83;;;9.00;79.90;;;;;;5067936;28;20072;-65
2023/01/31 13:01:32;;;;;;;11.43;3.10;;;9.00;79.90;;;;;;5105046;28;20016;-69
2023/01/31 13:04:25;;;;;;;11.38;3.80;;;9.00;80.00;;;;;;5101873;28;20436;-69
2023/01/31 13:06:57;;;;;;;10.50;3.30;;;9.00;80.00;;;;;;5125616;27;20321;-69
2023/01/31 13:09:29;;;;;;;9.40;3.95;;;9.00;80.20;;;;;;5112492;27;20023;-69